createdAt,value
2022-08-10T00:00:38.377Z,94747.97
2022-08-10T00:03:07.650Z,94743.31
2022-08-10T00:05:43.394Z,94749.88
2022-08-10T00:08:12.456Z,94746.31
2022-08-10T00:10:51.177Z,94743.56
2022-08-10T00:13:18.806Z,94735.69
2022-08-10T00:15:53.767Z,94739.22
2022-08-10T00:18:34.626Z,94743.03
2022-08-10T00:21:04.695Z,94744.13
2022-08-10T00:23:32.345Z,94745.78
2022-08-10T00:25:59.969Z,94742.25
2022-08-10T00:28:27.578Z,94740.63
2022-08-10T00:30:55.224Z,94738.97
2022-08-10T00:33:24.231Z,94740.88
2022-08-10T00:35:52.253Z,94736.50
2022-08-10T00:38:19.921Z,94732.69
2022-08-10T00:40:47.518Z,94731.06
2022-08-10T00:43:15.102Z,94736.50
2022-08-10T00:45:58.859Z,94731.31
2022-08-10T00:48:29.913Z,94727.50
2022-08-10T00:50:58.195Z,94732.16
2022-08-10T00:53:26.248Z,94735.16
2022-08-10T00:57:12.168Z,94731.63
2022-08-10T00:58:41.595Z,94731.09
2022-08-10T01:01:30.639Z,94731.88
2022-08-10T01:04:36.174Z,94722.91
2022-08-10T01:06:48.772Z,94731.09
2022-08-10T01:09:18.637Z,94727.53
2022-08-10T01:12:37.735Z,94724.81
2022-08-10T01:14:39.777Z,94731.34
2022-08-10T01:17:09.064Z,94724.00
2022-08-10T01:19:45.674Z,94727.78
2022-08-10T01:22:26.840Z,94727.78
2022-08-10T01:25:10.689Z,94715.53
2022-08-10T01:27:41.641Z,94717.19
2022-08-10T01:30:10.652Z,94710.91
2022-08-10T01:32:49.086Z,94711.19
2022-08-10T01:35:21.308Z,94712.00
2022-08-10T01:37:53.677Z,94712.00
2022-08-10T01:40:25.013Z,94712.81
2022-08-10T01:42:52.630Z,94711.72
2022-08-10T01:45:21.653Z,94704.63
2022-08-10T01:48:16.512Z,94709.78
2022-08-10T01:50:59.573Z,94709.00
2022-08-10T01:53:41.247Z,94708.16
2022-08-10T01:56:12.467Z,94704.09
2022-08-10T01:58:40.310Z,94701.09
2022-08-10T02:01:10.784Z,94707.63
2022-08-10T02:04:03.830Z,94698.91
2022-08-10T02:06:35.397Z,94704.63
2022-08-10T02:09:05.802Z,94695.91
2022-08-10T02:12:06.755Z,94708.44
2022-08-10T02:14:21.408Z,94705.47
2022-08-10T02:16:51.885Z,94700.81
2022-08-10T02:19:21.042Z,94703.00
2022-08-10T02:22:35.319Z,94713.09
2022-08-10T02:24:36.622Z,94706.81
2022-08-10T02:27:06.737Z,94707.13
2022-08-10T02:29:34.448Z,94701.91
2022-08-10T02:32:03.521Z,94705.75
2022-08-10T02:34:31.562Z,94702.47
2022-08-10T02:36:59.670Z,94696.19
2022-08-10T02:39:27.317Z,94688.84
2022-08-10T02:42:18.646Z,94689.94
2022-08-10T02:45:18.086Z,94687.22
2022-08-10T02:47:50.927Z,94694.56
2022-08-10T02:50:25.445Z,94682.88
2022-08-10T02:52:56.524Z,94685.59
2022-08-10T02:55:31.646Z,94677.66
2022-08-10T02:58:15.228Z,94680.13
2022-08-10T03:00:48.253Z,94673.28
2022-08-10T03:03:20.328Z,94672.47
2022-08-10T03:05:49.237Z,94677.91
2022-08-10T03:08:17.636Z,94682.25
2022-08-10T03:10:45.240Z,94680.63
2022-08-10T03:13:12.882Z,94674.38
2022-08-10T03:15:40.518Z,94676.28
2022-08-10T03:18:08.205Z,94680.94
2022-08-10T03:20:39.905Z,94675.47
2022-08-10T03:23:11.761Z,94678.47
2022-08-10T03:25:39.483Z,94672.22
2022-08-10T03:28:07.217Z,94665.94
2022-08-10T03:30:35.049Z,94662.41
2022-08-10T03:33:03.858Z,94666.19
2022-08-10T03:35:31.618Z,94664.31
2022-08-10T03:38:00.825Z,94668.13
2022-08-10T03:40:35.860Z,94666.50
2022-08-10T03:43:14.761Z,94661.84
2022-08-10T03:45:54.377Z,94663.75
2022-08-10T03:48:24.197Z,94670.31
2022-08-10T03:50:52.691Z,94671.41
2022-08-10T03:54:02.217Z,94664.31
2022-08-10T03:56:28.674Z,94665.13
2022-08-10T03:58:57.746Z,94656.41
2022-08-10T04:02:45.460Z,94662.13
2022-08-10T04:04:15.485Z,94666.47
2022-08-10T04:06:46.734Z,94673.84
2022-08-10T04:09:20.381Z,94673.00
2022-08-10T04:11:48.040Z,94679.28
2022-08-10T04:14:38.864Z,94685.84
2022-08-10T04:17:03.448Z,94678.47
2022-08-10T04:19:31.262Z,94686.41
2022-08-10T04:22:03.689Z,94677.13
2022-08-10T04:24:33.584Z,94680.94
2022-08-10T04:27:01.280Z,94679.28
2022-08-10T04:29:28.916Z,94689.13
2022-08-10T04:31:56.534Z,94689.13
2022-08-10T04:34:24.162Z,94683.94
2022-08-10T04:36:52.029Z,94680.41
2022-08-10T04:39:19.769Z,94673.31
2022-08-10T04:41:48.777Z,94679.56
2022-08-10T04:44:16.618Z,94679.56
2022-08-10T04:46:58.414Z,94685.84
2022-08-10T04:49:54.098Z,94684.75
2022-08-10T04:52:14.814Z,94683.66
2022-08-10T04:54:42.534Z,94692.09
2022-08-10T04:57:11.680Z,94692.38
2022-08-10T04:59:39.306Z,94685.28
2022-08-10T05:02:28.178Z,94684.75
2022-08-10T05:04:54.554Z,94688.31
2022-08-10T05:07:22.225Z,94684.19
2022-08-10T05:10:03.701Z,94683.09
2022-08-10T05:12:36.357Z,94691.00
2022-08-10T05:15:06.901Z,94689.13
2022-08-10T05:17:34.770Z,94694.56
2022-08-10T05:20:06.407Z,94694.56
2022-08-10T05:22:39.276Z,94697.84
2022-08-10T05:25:08.163Z,94691.28
2022-08-10T05:27:37.087Z,94691.00
2022-08-10T05:30:05.357Z,94691.28
2022-08-10T05:32:56.534Z,94699.16
2022-08-10T05:35:20.834Z,94691.81
2022-08-10T05:38:12.192Z,94691.81
2022-08-10T05:40:37.614Z,94698.91
2022-08-10T05:43:06.637Z,94686.13
2022-08-10T05:45:34.245Z,94689.94
2022-08-10T05:48:57.296Z,94697.28
2022-08-10T05:51:09.702Z,94692.38
2022-08-10T05:54:03.208Z,94693.19
2022-08-10T05:56:26.305Z,94694.00
2022-08-10T05:58:55.262Z,94688.56
2022-08-10T06:01:24.829Z,94688.56
2022-08-10T06:03:53.494Z,94692.09
2022-08-10T06:06:24.852Z,94693.72
2022-08-10T06:08:52.689Z,94693.72
2022-08-10T06:12:28.314Z,94698.91
2022-08-10T06:14:28.373Z,94704.34
2022-08-10T06:16:56.801Z,94704.34
2022-08-10T06:19:24.416Z,94694.53
2022-08-10T06:22:00.442Z,94696.16
2022-08-10T06:24:30.932Z,94694.28
2022-08-10T06:26:58.896Z,94697.00
2022-08-10T06:29:27.813Z,94703.28
2022-08-10T06:31:55.440Z,94704.91
2022-08-10T06:34:27.029Z,94704.09
2022-08-10T06:36:54.994Z,94692.38
2022-08-10T06:39:34.076Z,94692.38
2022-08-10T06:42:16.800Z,94694.00
2022-08-10T06:44:54.647Z,94694.00
2022-08-10T06:47:24.741Z,94690.47
2022-08-10T06:49:53.826Z,94685.84
2022-08-10T06:52:28.882Z,94686.94
2022-08-10T06:54:56.486Z,94686.63
2022-08-10T06:57:24.129Z,94685.53
2022-08-10T06:59:53.100Z,94691.00
2022-08-10T07:02:26.459Z,94683.66
2022-08-10T07:04:57.125Z,94682.81
2022-08-10T07:07:26.281Z,94676.28
2022-08-10T07:09:55.893Z,94673.56
2022-08-10T07:12:23.857Z,94676.28
2022-08-10T07:14:52.947Z,94676.28
2022-08-10T07:17:22.031Z,94675.47
2022-08-10T07:19:52.112Z,94674.38
2022-08-10T07:23:05.930Z,94673.56
2022-08-10T07:25:09.822Z,94682.56
2022-08-10T07:27:40.705Z,94680.63
2022-08-10T07:30:28.232Z,94681.47
2022-08-10T07:32:55.904Z,94679.84
2022-08-10T07:35:23.664Z,94672.75
2022-08-10T07:37:52.307Z,94686.09
2022-08-10T07:40:21.010Z,94678.75
2022-08-10T07:42:49.406Z,94686.09
2022-08-10T07:45:17.021Z,94680.63
2022-08-10T07:47:54.376Z,94675.19
2022-08-10T07:50:24.313Z,94684.19
2022-08-10T07:52:52.437Z,94680.38
2022-08-10T07:56:02.161Z,94678.47
2022-08-10T07:58:08.454Z,94678.47
2022-08-10T08:00:36.112Z,94686.66
2022-08-10T08:03:07.190Z,94687.44
2022-08-10T08:05:58.566Z,94681.19
2022-08-10T08:08:22.628Z,94682.88
2022-08-10T08:10:50.283Z,94682.00
2022-08-10T08:13:18.089Z,94682.00
2022-08-10T08:16:17.941Z,94680.13
2022-08-10T08:18:36.942Z,94682.00
2022-08-10T08:21:16.043Z,94680.94
2022-08-10T08:24:31.991Z,94684.50
2022-08-10T08:26:40.470Z,94690.75
2022-08-10T08:29:08.061Z,94691.56
2022-08-10T08:31:35.795Z,94691.56
2022-08-10T08:34:06.690Z,94686.13
2022-08-10T08:36:34.322Z,94692.38
2022-08-10T08:39:01.973Z,94694.00
2022-08-10T08:41:41.753Z,94688.03
2022-08-10T08:44:12.643Z,94684.19
2022-08-10T08:46:45.569Z,94688.56
2022-08-10T08:50:08.449Z,94690.47
2022-08-10T08:52:31.340Z,94686.66
2022-08-10T08:55:49.650Z,94687.47
2022-08-10T08:58:04.341Z,94682.00
2022-08-10T09:00:35.786Z,94688.56
2022-08-10T09:03:37.966Z,94684.75
2022-08-10T09:06:17.058Z,94687.19
2022-08-10T09:09:20.169Z,94679.03
2022-08-10T09:11:55.133Z,94685.31
2022-08-10T09:14:25.930Z,94680.94
2022-08-10T09:16:57.576Z,94670.59
2022-08-10T09:19:34.892Z,94671.69
2022-08-10T09:22:17.252Z,94673.31
2022-08-10T09:24:46.428Z,94669.75
2022-08-10T09:27:19.254Z,94665.13
2022-08-10T09:29:53.041Z,94668.66
2022-08-10T09:33:06.165Z,94665.94
2022-08-10T09:36:26.785Z,94670.28
2022-08-10T09:38:19.732Z,94664.84
2022-08-10T09:40:59.376Z,94670.28
2022-08-10T09:43:42.103Z,94673.00
2022-08-10T09:46:23.624Z,94671.13
2022-08-10T09:48:59.752Z,94668.66
2022-08-10T09:51:47.761Z,94669.50
2022-08-10T09:54:40.460Z,94660.22
2022-08-10T09:57:45.072Z,94669.19
2022-08-10T10:00:10.890Z,94669.19
2022-08-10T10:02:47.242Z,94669.19
2022-08-10T10:05:26.556Z,94676.56
2022-08-10T10:07:56.568Z,94673.84
2022-08-10T10:10:27.754Z,94672.75
2022-08-10T10:12:58.140Z,94667.31
2022-08-10T10:15:31.209Z,94668.09
2022-08-10T10:18:05.096Z,94669.19
2022-08-10T10:20:36.730Z,94663.47
2022-08-10T10:23:09.018Z,94672.50
2022-08-10T10:25:50.152Z,94670.56
2022-08-10T10:28:57.460Z,94674.13
2022-08-10T10:31:22.504Z,94660.75
2022-08-10T10:33:59.459Z,94660.75
2022-08-10T10:36:27.257Z,94659.66
2022-08-10T10:38:56.555Z,94659.66
2022-08-10T10:41:56.146Z,94655.03
2022-08-10T10:44:30.933Z,94662.91
2022-08-10T10:47:08.336Z,94660.72
2022-08-10T10:49:44.041Z,94654.75
2022-08-10T10:52:18.786Z,94653.66
2022-08-10T10:54:48.588Z,94645.47
2022-08-10T10:57:20.587Z,94656.09
2022-08-10T10:59:57.398Z,94659.63
2022-08-10T11:02:39.827Z,94650.66
2022-08-10T11:05:14.845Z,94646.00
2022-08-10T11:07:53.137Z,94645.22
2022-08-10T11:10:31.997Z,94649.56
2022-08-10T11:14:25.482Z,94654.19
2022-08-10T11:16:11.945Z,94651.47
2022-08-10T11:18:49.989Z,94648.72
2022-08-10T11:21:21.938Z,94652.28
2022-08-10T11:24:42.611Z,94648.47
2022-08-10T11:26:46.293Z,94646.84
2022-08-10T11:29:18.755Z,94650.41
2022-08-10T11:31:48.863Z,94647.66
2022-08-10T11:34:47.757Z,94646.84
2022-08-10T11:37:11.948Z,94658.56
2022-08-10T11:39:49.439Z,94643.00
2022-08-10T11:42:31.618Z,94650.09
2022-08-10T11:45:06.720Z,94652.03
2022-08-10T11:47:39.159Z,94653.91
2022-08-10T11:50:10.866Z,94653.66
2022-08-10T11:52:41.925Z,94653.66
2022-08-10T11:55:13.054Z,94653.66
2022-08-10T11:57:53.050Z,94646.28
2022-08-10T12:00:22.951Z,94649.00
2022-08-10T12:02:53.551Z,94646.28
2022-08-10T12:05:23.881Z,94642.44
2022-08-10T12:10:02.023Z,94652.56
2022-08-10T12:10:58.847Z,94644.91
2022-08-10T12:13:27.614Z,94648.75
2022-08-10T12:16:05.148Z,94648.75
2022-08-10T12:18:35.016Z,94647.91
2022-08-10T12:21:04.517Z,94649.28
2022-08-10T12:23:39.312Z,94637.84
2022-08-10T12:26:09.756Z,94650.38
2022-08-10T12:28:49.319Z,94648.44
2022-08-10T12:31:22.390Z,94643.28
2022-08-10T12:34:02.461Z,94649.28
2022-08-10T12:36:34.737Z,94647.63
2022-08-10T12:39:03.969Z,94652.00
2022-08-10T12:41:43.514Z,94644.66
2022-08-10T12:44:14.281Z,94642.72
2022-08-10T12:46:50.615Z,94640.25
2022-08-10T12:49:20.405Z,94641.91
2022-08-10T12:51:51.693Z,94637.28
2022-08-10T12:54:32.013Z,94634.53
2022-08-10T12:57:01.494Z,94640.00
2022-08-10T12:59:29.438Z,94650.09
2022-08-10T13:02:06.514Z,94634.53
2022-08-10T13:04:38.156Z,94631.81
2022-08-10T13:07:06.277Z,94640.00
2022-08-10T13:09:34.603Z,94637.28
2022-08-10T13:12:35.267Z,94638.09
2022-08-10T13:15:25.248Z,94643.56
2022-08-10T13:18:02.133Z,94643.56
2022-08-10T13:20:31.862Z,94645.44
2022-08-10T13:23:00.754Z,94637.00
2022-08-10T13:25:30.745Z,94642.47
2022-08-10T13:28:34.816Z,94638.09
2022-08-10T13:30:50.891Z,94627.19
2022-08-10T13:34:35.880Z,94627.19
2022-08-10T13:36:08.004Z,94619.00
2022-08-10T13:38:35.631Z,94623.38
2022-08-10T13:41:03.291Z,94623.63
2022-08-10T13:43:30.898Z,94623.38
2022-08-10T13:45:58.492Z,94623.38
2022-08-10T13:48:27.430Z,94614.38
2022-08-10T13:50:58.228Z,94612.47
2022-08-10T13:53:29.857Z,94611.38
2022-08-10T13:55:57.677Z,94613.25
2022-08-10T13:58:27.507Z,94612.47
2022-08-10T14:00:55.520Z,94605.09
2022-08-10T14:03:23.254Z,94602.09
2022-08-10T14:05:53.855Z,94598.53
2022-08-10T14:08:26.421Z,94604.28
2022-08-10T14:11:08.918Z,94591.44
2022-08-10T14:13:40.617Z,94581.38
2022-08-10T14:16:09.237Z,94597.72
2022-08-10T14:18:36.923Z,94580.28
2022-08-10T14:21:06.580Z,94586.53
2022-08-10T14:23:35.281Z,94583.00
2022-08-10T14:26:08.758Z,94578.34
2022-08-10T14:28:38.313Z,94580.28
2022-08-10T14:31:07.374Z,94576.47
2022-08-10T14:33:36.848Z,94583.81
2022-08-10T14:36:20.314Z,94575.63
2022-08-10T14:38:51.266Z,94578.34
2022-08-10T14:42:01.529Z,94579.97
2022-08-10T14:44:14.885Z,94575.63
2022-08-10T14:46:45.192Z,94578.34
2022-08-10T14:49:25.543Z,94579.19
2022-08-10T14:51:59.664Z,94579.19
2022-08-10T14:54:29.547Z,94571.28
2022-08-10T14:56:57.803Z,94572.09
2022-08-10T14:59:45.877Z,94571.28
2022-08-10T15:02:40.560Z,94574.53
2022-08-10T15:05:09.035Z,94570.19
2022-08-10T15:07:38.510Z,94560.09
2022-08-10T15:10:07.901Z,94562.00
2022-08-10T15:12:36.185Z,94562.81
2022-08-10T15:15:05.328Z,94574.53
2022-08-10T15:17:35.789Z,94568.28
2022-08-10T15:20:13.457Z,94566.34
2022-08-10T15:22:46.632Z,94564.72
2022-08-10T15:25:18.647Z,94562.00
2022-08-10T15:27:54.565Z,94562.00
2022-08-10T15:30:30.070Z,94571.81
2022-08-10T15:33:15.611Z,94562.81
2022-08-10T15:36:06.837Z,94551.09
2022-08-10T15:38:37.344Z,94564.72
2022-08-10T15:41:07.844Z,94553.81
2022-08-10T15:43:44.733Z,94551.91
2022-08-10T15:46:17.084Z,94556.53
2022-08-10T15:48:48.264Z,94550.28
2022-08-10T15:51:22.796Z,94548.38
2022-08-10T15:54:02.077Z,94552.72
2022-08-10T15:56:31.896Z,94542.38
2022-08-10T15:59:08.396Z,94543.44
2022-08-10T16:02:04.336Z,94549.94
2022-08-10T16:04:31.952Z,94542.03
2022-08-10T16:07:01.520Z,94544.72
2022-08-10T16:10:22.412Z,94537.88
2022-08-10T16:12:29.178Z,94543.06
2022-08-10T16:14:57.934Z,94538.94
2022-08-10T16:17:25.627Z,94535.69
2022-08-10T16:19:55.861Z,94533.75
2022-08-10T16:22:36.466Z,94533.47
2022-08-10T16:25:12.936Z,94530.19
2022-08-10T16:27:40.571Z,94535.38
2022-08-10T16:30:08.769Z,94535.59
2022-08-10T16:32:36.389Z,94531.75
2022-08-10T16:35:09.230Z,94531.75
2022-08-10T16:37:57.732Z,94530.66
2022-08-10T16:40:27.991Z,94526.28
2022-08-10T16:42:55.674Z,94518.63
2022-08-10T16:45:29.534Z,94523.25
2022-08-10T16:47:57.157Z,94521.09
2022-08-10T16:50:26.580Z,94526.28
2022-08-10T16:52:54.221Z,94521.09
2022-08-10T16:55:24.580Z,94519.72
2022-08-10T16:58:13.156Z,94527.31
2022-08-10T17:00:41.075Z,94522.97
2022-08-10T17:03:22.430Z,94513.16
2022-08-10T17:06:10.015Z,94523.81
2022-08-10T17:08:40.566Z,94519.41
2022-08-10T17:11:16.656Z,94521.03
2022-08-10T17:13:45.610Z,94522.38
2022-08-10T17:16:13.242Z,94516.09
2022-08-10T17:18:42.042Z,94511.47
2022-08-10T17:21:16.719Z,94510.09
2022-08-10T17:23:46.850Z,94508.16
2022-08-10T17:26:16.720Z,94509.78
2022-08-10T17:28:52.593Z,94514.44
2022-08-10T17:31:53.863Z,94511.97
2022-08-10T17:34:11.315Z,94511.97
2022-08-10T17:36:39.034Z,94517.94
2022-08-10T17:39:06.683Z,94507.56
2022-08-10T17:41:34.675Z,94518.47
2022-08-10T17:44:04.663Z,94518.16
2022-08-10T17:46:33.430Z,94513.53
2022-08-10T17:49:01.481Z,94517.91
2022-08-10T17:51:30.986Z,94519.81
2022-08-10T17:53:59.385Z,94517.09
2022-08-10T17:56:27.006Z,94517.91
2022-08-10T17:59:07.204Z,94522.25
2022-08-10T18:01:38.788Z,94520.63
2022-08-10T18:04:25.290Z,94523.09
2022-08-10T18:06:53.620Z,94527.72
2022-08-10T18:09:26.218Z,94532.06
2022-08-10T18:11:57.206Z,94532.06
2022-08-10T18:14:26.209Z,94532.06
2022-08-10T18:16:54.461Z,94537.53
2022-08-10T18:19:22.185Z,94537.25
2022-08-10T18:21:49.882Z,94537.53
2022-08-10T18:24:18.799Z,94534.78
2022-08-10T18:26:50.734Z,94535.31
2022-08-10T18:29:19.662Z,94538.06
2022-08-10T18:31:49.268Z,94538.88
2022-08-10T18:34:19.182Z,94541.63
2022-08-10T18:36:47.468Z,94541.34
2022-08-10T18:39:16.080Z,94553.06
2022-08-10T18:42:00.353Z,94556.63
2022-08-10T18:44:34.504Z,94551.97
2022-08-10T18:47:05.459Z,94556.63
2022-08-10T18:49:34.721Z,94558.25
2022-08-10T18:52:03.192Z,94555.78
2022-08-10T18:54:44.103Z,94556.31
2022-08-10T18:57:17.106Z,94561.78
2022-08-10T19:00:03.932Z,94567.22
2022-08-10T19:02:47.161Z,94568.06
2022-08-10T19:05:30.210Z,94565.34
2022-08-10T19:08:13.407Z,94568.06
2022-08-10T19:11:01.751Z,94564.50
2022-08-10T19:13:32.439Z,94564.50
2022-08-10T19:16:02.098Z,94556.31
2022-08-10T19:18:33.519Z,94564.50
2022-08-10T19:21:06.072Z,94567.47
2022-08-10T19:23:47.651Z,94572.13
2022-08-10T19:26:44.933Z,94574.84
2022-08-10T19:30:11.636Z,94578.41
2022-08-10T19:32:18.350Z,94578.41
2022-08-10T19:34:53.574Z,94577.56
2022-08-10T19:37:32.615Z,94572.13
2022-08-10T19:40:11.983Z,94578.94
2022-08-10T19:42:41.394Z,94572.94
2022-08-10T19:46:01.031Z,94580.03
2022-08-10T19:48:10.389Z,94581.13
2022-08-10T19:50:52.291Z,94574.56
2022-08-10T19:53:36.671Z,94575.41
2022-08-10T19:56:31.052Z,94578.13
2022-08-10T19:59:03.901Z,94574.56
2022-08-10T20:01:54.440Z,94574.56
2022-08-10T20:04:28.852Z,94581.66
2022-08-10T20:07:02.256Z,94580.56
2022-08-10T20:09:34.852Z,94577.03
2022-08-10T20:12:03.363Z,94577.03
2022-08-10T20:14:35.639Z,94575.41
2022-08-10T20:17:07.098Z,94570.75
2022-08-10T20:19:52.876Z,94568.00
2022-08-10T20:22:29.172Z,94573.47
2022-08-10T20:25:01.365Z,94566.38
2022-08-10T20:27:59.169Z,94571.31
2022-08-10T20:30:18.486Z,94577.31
2022-08-10T20:32:50.039Z,94568.00
2022-08-10T20:35:23.966Z,94568.84
2022-08-10T20:38:04.367Z,94565.00
2022-08-10T20:40:35.250Z,94567.72
2022-08-10T20:43:11.010Z,94562.28
2022-08-10T20:46:06.973Z,94560.34
2022-08-10T20:48:38.092Z,94561.97
2022-08-10T20:51:10.661Z,94563.06
2022-08-10T20:53:45.647Z,94557.34
2022-08-10T20:56:17.502Z,94548.03
2022-08-10T20:59:04.894Z,94548.03
2022-08-10T21:02:06.465Z,94550.78
2022-08-10T21:04:44.533Z,94548.03
2022-08-10T21:07:33.039Z,94553.50
2022-08-10T21:10:20.976Z,94542.84
2022-08-10T21:12:56.459Z,94544.47
2022-08-10T21:15:32.844Z,94539.84
2022-08-10T21:18:36.851Z,94546.94
2022-08-10T21:21:09.289Z,94551.03
2022-08-10T21:23:42.166Z,94540.09
2022-08-10T21:26:11.170Z,94543.09
2022-08-10T21:29:23.531Z,94537.97
2022-08-10T21:32:16.095Z,94547.03
2022-08-10T21:35:02.181Z,94537.50
2022-08-10T21:37:42.304Z,94536.44
2022-08-10T21:40:32.108Z,94537.28
2022-08-10T21:43:44.042Z,94545.78
2022-08-10T21:46:37.221Z,94536.81
2022-08-10T21:49:26.238Z,94539.00
2022-08-10T21:52:27.348Z,94532.47
2022-08-10T21:55:14.442Z,94533.34
2022-08-10T21:58:04.893Z,94535.50
2022-08-10T22:00:51.289Z,94532.25
2022-08-10T22:06:52.336Z,94533.06
2022-08-10T22:09:47.184Z,94529.03
2022-08-10T22:12:32.884Z,94528.50
2022-08-10T22:15:23.042Z,94527.13
2022-08-10T22:18:09.585Z,94525.25
2022-08-10T22:20:55.963Z,94526.34
2022-08-10T22:23:53.413Z,94520.06
2022-08-10T22:26:44.732Z,94519.00
2022-08-10T22:29:52.366Z,94514.66
2022-08-10T22:31:28.110Z,94536.41
2022-08-10T22:32:43.811Z,94512.22
2022-08-10T22:35:48.753Z,94517.13
2022-08-10T22:38:38.648Z,94509.25
2022-08-10T22:41:27.944Z,94506.78
2022-08-10T22:44:17.162Z,94501.91
2022-08-10T22:47:02.166Z,94505.72
2022-08-10T22:49:28.672Z,94506.84
2022-08-10T22:51:59.194Z,94512.56
2022-08-10T22:54:55.001Z,94511.75
2022-08-10T22:57:40.109Z,94510.94
2022-08-10T23:00:14.103Z,94513.94
2022-08-10T23:02:43.149Z,94506.03
2022-08-10T23:05:12.600Z,94512.31
2022-08-10T23:07:47.353Z,94516.44
2022-08-10T23:10:15.898Z,94514.78
2022-08-10T23:12:47.253Z,94505.78
2022-08-10T23:15:35.922Z,94506.06
2022-08-10T23:18:21.118Z,94505.53
2022-08-10T23:20:48.746Z,94506.94
2022-08-10T23:23:23.450Z,94502.56
2022-08-10T23:25:57.547Z,94495.47
2022-08-10T23:28:38.780Z,94493.56
2022-08-10T23:31:14.435Z,94494.94
2022-08-10T23:33:42.498Z,94495.22
2022-08-10T23:36:34.398Z,94499.84
2022-08-10T23:39:25.941Z,94493.03
2022-08-10T23:41:53.134Z,94488.16
2022-08-10T23:44:21.330Z,94492.81
2022-08-10T23:46:49.090Z,94495.53
2022-08-10T23:49:16.694Z,94495.00
2022-08-10T23:51:55.659Z,94493.34
2022-08-10T23:54:25.693Z,94489.00
2022-08-10T23:57:01.450Z,94490.91
2022-08-10T23:59:29.434Z,94492.28
